Time;durP1;ratioP1;P1;durP2;ratioP2;P2;SDS_P1;SDS_P2;PMS_P1;PMS_P2;Temp;Humidity;BMP_temperature;BMP_pressure;BME280_temperature;BME280_humidity;BME280_pressure;Samples;Min_cycle;Max_cycle;Signal;HPM_P1;HPM_P2
2022/02/17 00:00:12;;;;;;;20.35;4.72;;;10.40;94.60;;;;;;5076482;28;20120;-76
2022/02/17 00:02:44;;;;;;;28.25;6.65;;;10.40;94.50;;;;;;5105403;27;20051;-76
2022/02/17 00:05:10;;;;;;;18.70;4.35;;;10.40;94.30;;;;;;5116793;28;20054;-77
2022/02/17 00:07:36;;;;;;;22.05;4.45;;;10.30;94.00;;;;;;5084439;28;20097;-77
2022/02/17 00:10:03;;;;;;;22.08;4.50;;;10.30;93.80;;;;;;5116964;27;20057;-78
2022/02/17 00:12:30;;;;;;;21.00;5.18;;;10.30;93.60;;;;;;5117155;27;20062;-76
2022/02/17 00:14:57;;;;;;;19.90;4.20;;;10.30;93.20;;;;;;5109790;27;20031;-77
2022/02/17 00:17:23;;;;;;;19.98;4.82;;;10.30;93.00;;;;;;5079229;27;20035;-76
2022/02/17 00:19:48;;;;;;;15.60;4.18;;;10.20;93.00;;;;;;5097237;28;20042;-77
2022/02/17 00:22:14;;;;;;;23.05;5.28;;;10.20;92.80;;;;;;5075008;27;20038;-76
2022/02/17 00:24:40;;;;;;;24.67;4.82;;;10.20;92.80;;;;;;5099661;27;20074;-76
2022/02/17 00:27:06;;;;;;;25.33;4.78;;;10.20;92.70;;;;;;5085974;28;20036;-76
2022/02/17 00:29:32;;;;;;;18.38;4.90;;;10.20;92.70;;;;;;5110623;27;20039;-77
2022/02/17 00:31:57;;;;;;;23.58;4.55;;;10.20;92.50;;;;;;5103281;27;20088;-76
2022/02/17 00:34:23;;;;;;;25.10;5.07;;;10.20;92.50;;;;;;5086831;27;20035;-76
2022/02/17 00:36:49;;;;;;;26.67;4.93;;;10.20;92.50;;;;;;5110376;27;20052;-81
2022/02/17 00:39:15;;;;;;;22.85;4.82;;;10.10;92.50;;;;;;5094736;28;20051;-76
2022/02/17 00:41:40;;;;;;;17.08;4.22;;;10.10;92.60;;;;;;5107351;28;20039;-76
2022/02/17 00:44:06;;;;;;;15.20;3.88;;;10.10;92.40;;;;;;5075108;28;20036;-76
2022/02/17 00:46:32;;;;;;;14.50;4.13;;;10.10;92.40;;;;;;5070926;28;20134;-76
2022/02/17 00:48:57;;;;;;;23.73;4.47;;;10.10;92.30;;;;;;5058247;28;20054;-76
2022/02/17 00:51:23;;;;;;;17.35;4.07;;;10.10;92.30;;;;;;5110987;27;20039;-76
2022/02/17 00:53:50;;;;;;;19.02;3.90;;;10.00;92.20;;;;;;5092014;28;20062;-80
2022/02/17 00:56:16;;;;;;;14.77;3.88;;;10.00;92.10;;;;;;5100143;27;20043;-76
2022/02/17 00:58:41;;;;;;;16.48;3.75;;;10.00;92.20;;;;;;5087472;27;20584;-76
2022/02/17 01:01:07;;;;;;;18.05;3.42;;;10.00;92.30;;;;;;5067037;28;20118;-76
2022/02/17 01:03:33;;;;;;;18.63;4.90;;;10.00;92.40;;;;;;5111917;27;20069;-76
2022/02/17 01:06:00;;;;;;;22.63;3.83;;;10.00;92.40;;;;;;5079630;28;20480;-76
2022/02/17 01:08:25;;;;;;;21.55;5.40;;;10.00;92.60;;;;;;5080124;28;20134;-76
2022/02/17 01:10:51;;;;;;;25.33;4.10;;;10.00;92.70;;;;;;5102097;27;20126;-81
2022/02/17 01:13:17;;;;;;;22.80;4.90;;;10.00;92.80;;;;;;5076086;28;20040;-76
2022/02/17 01:15:42;;;;;;;23.30;4.70;;;10.00;92.90;;;;;;5080268;28;20092;-77
2022/02/17 01:18:08;;;;;;;27.45;5.55;;;10.00;93.00;;;;;;5066990;27;20122;-76
2022/02/17 01:20:34;;;;;;;20.35;4.05;;;10.00;93.10;;;;;;5117067;27;20043;-76
2022/02/17 01:22:59;;;;;;;22.92;5.13;;;10.00;93.20;;;;;;5099429;27;20039;-76
2022/02/17 01:25:25;;;;;;;24.35;5.35;;;10.00;93.10;;;;;;5134032;27;20471;-76
2022/02/17 01:27:53;;;;;;;26.40;5.20;;;10.10;93.00;;;;;;5117048;27;20050;-76
2022/02/17 01:30:19;;;;;;;24.85;5.22;;;10.10;93.00;;;;;;5117135;27;20043;-76
2022/02/17 01:32:45;;;;;;;20.00;4.07;;;10.10;92.80;;;;;;5100027;27;20035;-76
2022/02/17 01:35:10;;;;;;;22.42;5.28;;;10.10;92.60;;;;;;5116146;27;20114;-76
2022/02/17 01:37:36;;;;;;;17.92;4.40;;;10.10;92.50;;;;;;5116955;27;20528;-76
2022/02/17 01:40:03;;;;;;;20.83;4.85;;;10.10;92.30;;;;;;5116382;27;20043;-76
2022/02/17 01:42:28;;;;;;;17.45;4.00;;;10.10;92.00;;;;;;5151305;27;20092;-76
2022/02/17 01:44:54;;;;;;;21.45;4.65;;;10.00;91.70;;;;;;5116867;27;20043;-76
2022/02/17 01:47:20;;;;;;;14.70;4.40;;;10.00;91.50;;;;;;5133478;27;20070;-75
2022/02/17 01:49:49;;;;;;;20.83;4.82;;;10.00;91.30;;;;;;5105609;27;20043;-76
2022/02/17 01:52:15;;;;;;;20.17;3.50;;;10.00;91.20;;;;;;5097238;28;20051;-76
2022/02/17 01:54:47;;;;;;;22.38;4.35;;;9.90;91.00;;;;;;5062524;28;20040;-76
2022/02/17 01:57:16;;;;;;;20.98;5.47;;;9.90;90.90;;;;;;5058882;28;20052;-76
2022/02/17 01:59:45;;;;;;;20.85;4.63;;;9.90;90.80;;;;;;5075721;28;20610;-76
2022/02/17 02:02:11;;;;;;;19.95;4.20;;;9.80;90.50;;;;;;5091225;28;20376;-76
2022/02/17 02:04:37;;;;;;;22.70;4.38;;;9.80;90.50;;;;;;5116725;27;20035;-76
2022/02/17 02:07:04;;;;;;;19.73;4.20;;;9.80;90.30;;;;;;5115853;27;20050;-76
2022/02/17 02:09:30;;;;;;;17.60;3.88;;;9.80;90.40;;;;;;5133514;27;20143;-76
2022/02/17 02:11:57;;;;;;;22.13;4.88;;;9.80;90.40;;;;;;5116118;27;20068;-75
2022/02/17 02:14:22;;;;;;;18.60;3.80;;;9.70;90.20;;;;;;5098845;27;20126;-76
2022/02/17 02:16:48;;;;;;;23.17;4.30;;;9.70;90.20;;;;;;5099121;27;20108;-75
2022/02/17 02:19:14;;;;;;;28.15;4.63;;;9.70;90.10;;;;;;5098701;27;20088;-75
2022/02/17 02:21:39;;;;;;;25.67;6.00;;;9.70;90.20;;;;;;5099215;27;20088;-76
2022/02/17 02:24:06;;;;;;;16.13;4.38;;;9.70;90.00;;;;;;5092209;28;20133;-75
2022/02/17 02:26:32;;;;;;;27.42;5.00;;;9.70;90.00;;;;;;5079059;28;20433;-75
2022/02/17 02:28:59;;;;;;;16.02;4.10;;;9.70;89.90;;;;;;5095907;28;20047;-75
2022/02/17 02:31:25;;;;;;;23.25;4.95;;;9.70;89.70;;;;;;5095038;28;20138;-75
2022/02/17 02:33:50;;;;;;;28.90;4.38;;;9.70;89.30;;;;;;5078274;28;20123;-75
2022/02/17 02:36:16;;;;;;;23.90;4.55;;;9.60;89.10;;;;;;5078045;28;20043;-76
2022/02/17 02:38:42;;;;;;;22.45;6.22;;;9.60;89.20;;;;;;5078557;28;20047;-75
2022/02/17 02:41:08;;;;;;;26.90;6.15;;;9.60;89.00;;;;;;5094800;28;20039;-76
2022/02/17 02:43:35;;;;;;;33.58;6.18;;;9.60;89.10;;;;;;5078546;28;20042;-75
2022/02/17 02:46:01;;;;;;;26.35;5.38;;;9.60;88.70;;;;;;5095492;28;20036;-75
2022/02/17 02:48:27;;;;;;;25.10;7.18;;;9.60;88.80;;;;;;5077458;28;20070;-75
2022/02/17 02:50:53;;;;;;;24.33;6.65;;;9.60;88.50;;;;;;5078332;28;20047;-75
2022/02/17 02:53:18;;;;;;;28.65;5.45;;;9.50;88.20;;;;;;5061141;28;20094;-75
2022/02/17 02:55:45;;;;;;;27.33;6.03;;;9.50;88.30;;;;;;5078158;28;20039;-75
2022/02/17 02:58:12;;;;;;;29.20;6.07;;;9.50;88.00;;;;;;5094683;28;20043;-76
2022/02/17 03:00:38;;;;;;;34.58;6.05;;;9.50;88.00;;;;;;5078111;28;20066;-76
2022/02/17 03:03:04;;;;;;;22.02;5.90;;;9.50;87.70;;;;;;5095098;28;20043;-76
2022/02/17 03:05:30;;;;;;;22.42;5.63;;;9.50;87.80;;;;;;5077536;28;20051;-75
2022/02/17 03:07:56;;;;;;;27.52;6.13;;;9.50;87.70;;;;;;5078278;28;20039;-75
2022/02/17 03:10:21;;;;;;;25.90;5.05;;;9.50;87.50;;;;;;5111056;28;20434;-76
2022/02/17 03:12:47;;;;;;;23.20;5.93;;;9.50;87.50;;;;;;5094861;28;20114;-75
2022/02/17 03:15:13;;;;;;;25.00;5.88;;;9.50;87.60;;;;;;5077199;28;20036;-76
2022/02/17 03:17:38;;;;;;;26.50;6.03;;;9.40;87.60;;;;;;5078115;28;20104;-75
2022/02/17 03:20:07;;;;;;;27.13;5.45;;;9.50;87.50;;;;;;5111679;28;20123;-75
2022/02/17 03:22:34;;;;;;;35.13;5.85;;;9.50;87.50;;;;;;5094495;28;20043;-76
2022/02/17 03:25:01;;;;;;;22.90;5.53;;;9.40;87.40;;;;;;5077569;28;20130;-75
2022/02/17 03:27:26;;;;;;;27.63;5.55;;;9.40;87.30;;;;;;5077397;28;20117;-75
2022/02/17 03:29:52;;;;;;;23.55;5.15;;;9.50;87.60;;;;;;5094733;28;20114;-75
2022/02/17 03:32:19;;;;;;;27.75;5.43;;;9.40;87.70;;;;;;5110971;28;20464;-76
2022/02/17 03:34:45;;;;;;;27.45;6.85;;;9.40;87.30;;;;;;5077741;28;20039;-76
2022/02/17 03:37:11;;;;;;;24.35;5.53;;;9.40;87.20;;;;;;5061020;28;20101;-79
2022/02/17 03:39:37;;;;;;;20.63;4.90;;;9.40;87.30;;;;;;5060659;28;20036;-76
2022/02/17 03:42:03;;;;;;;22.15;4.78;;;9.40;86.90;;;;;;5087398;28;20097;-75
2022/02/17 03:44:29;;;;;;;24.45;5.97;;;9.40;86.90;;;;;;5057114;28;20047;-76
2022/02/17 03:46:55;;;;;;;23.15;4.35;;;9.40;86.90;;;;;;5061092;28;20457;-76
2022/02/17 03:49:21;;;;;;;24.33;5.15;;;9.40;86.50;;;;;;5076108;28;20036;-76
2022/02/17 03:51:46;;;;;;;22.23;5.78;;;9.40;86.50;;;;;;5068664;28;20052;-76
2022/02/17 03:54:12;;;;;;;26.80;5.32;;;9.40;86.30;;;;;;5080061;28;20079;-75
2022/02/17 03:56:38;;;;;;;15.35;4.25;;;9.40;86.30;;;;;;5075397;28;20055;-80
2022/02/17 03:59:04;;;;;;;21.30;4.70;;;9.30;86.30;;;;;;5076175;28;20460;-76
2022/02/17 04:01:32;;;;;;;20.35;4.88;;;9.30;86.40;;;;;;5060850;28;20044;-76
2022/02/17 04:03:59;;;;;;;23.70;5.47;;;9.30;86.40;;;;;;5074241;28;20032;-76
2022/02/17 04:06:24;;;;;;;18.80;4.65;;;9.30;86.10;;;;;;5061205;28;20353;-75
2022/02/17 04:08:50;;;;;;;20.25;4.70;;;9.30;86.00;;;;;;5061038;28;20039;-76
2022/02/17 04:11:16;;;;;;;22.48;4.93;;;9.20;85.50;;;;;;5058972;28;20047;-81
2022/02/17 04:13:41;;;;;;;21.15;4.28;;;9.20;85.90;;;;;;5077455;28;20384;-76
2022/02/17 04:16:07;;;;;;;20.73;5.13;;;9.20;86.00;;;;;;5068790;28;20530;-75
2022/02/17 04:18:33;;;;;;;24.40;4.68;;;9.20;85.40;;;;;;5051019;28;20127;-76
2022/02/17 04:20:58;;;;;;;17.08;4.53;;;9.20;85.40;;;;;;5069125;28;20098;-76
2022/02/17 04:23:24;;;;;;;22.77;4.80;;;9.10;85.40;;;;;;5050257;28;20081;-78
2022/02/17 04:25:50;;;;;;;17.55;5.10;;;9.10;85.50;;;;;;5090919;28;20369;-75
2022/02/17 04:28:15;;;;;;;24.23;5.90;;;9.10;85.50;;;;;;5078385;28;20075;-76
2022/02/17 04:30:41;;;;;;;25.05;5.10;;;9.10;85.50;;;;;;5091425;28;20059;-76
2022/02/17 04:33:10;;;;;;;22.08;5.72;;;9.00;85.40;;;;;;5062513;28;20040;-77
2022/02/17 04:35:36;;;;;;;22.20;4.82;;;9.00;85.40;;;;;;5063099;28;20027;-78
2022/02/17 04:38:01;;;;;;;25.85;5.75;;;9.00;85.70;;;;;;5042863;28;20048;-77
2022/02/17 04:43:11;;;;;;;24.48;5.28;;;8.90;85.70;;;;;;5083808;28;20040;-77
2022/02/17 04:45:37;;;;;;;19.60;4.78;;;8.90;86.00;;;;;;5048386;28;20051;-77
2022/02/17 04:48:03;;;;;;;19.30;4.05;;;8.90;86.20;;;;;;5072135;28;20434;-77
2022/02/17 04:50:29;;;;;;;21.27;5.50;;;8.90;86.20;;;;;;5076606;28;20365;-78
2022/02/17 04:52:54;;;;;;;22.23;4.95;;;8.90;86.20;;;;;;5063607;28;20090;-76
2022/02/17 04:55:20;;;;;;;21.27;5.32;;;8.90;86.00;;;;;;5061132;28;20032;-77
2022/02/17 04:57:46;;;;;;;19.02;4.32;;;8.90;85.80;;;;;;5061203;28;20475;-77
2022/02/17 05:00:12;;;;;;;17.30;4.38;;;8.90;85.80;;;;;;5087144;28;20538;-77
2022/02/17 05:02:37;;;;;;;23.83;4.18;;;8.80;85.40;;;;;;5058423;28;20050;-77
2022/02/17 05:05:04;;;;;;;20.35;4.25;;;8.80;85.50;;;;;;5065680;28;20040;-76
2022/02/17 05:07:30;;;;;;;19.30;4.47;;;8.80;85.30;;;;;;5044578;28;20040;-76
2022/02/17 05:09:56;;;;;;;24.77;4.78;;;8.80;84.90;;;;;;5075047;28;20384;-75
2022/02/17 05:12:21;;;;;;;17.83;4.20;;;8.70;84.80;;;;;;5065893;28;20039;-75
2022/02/17 05:14:47;;;;;;;19.13;4.85;;;8.70;84.60;;;;;;5066121;28;20469;-75
2022/02/17 05:17:13;;;;;;;18.48;3.92;;;8.70;84.50;;;;;;5076427;28;20096;-75
2022/02/17 05:19:38;;;;;;;13.02;3.63;;;8.70;84.40;;;;;;5075240;28;20044;-76
2022/02/17 05:22:04;;;;;;;16.52;4.28;;;8.60;84.40;;;;;;5063589;28;20036;-76
2022/02/17 05:24:30;;;;;;;16.33;5.75;;;8.60;84.40;;;;;;5055273;28;20135;-76
2022/02/17 05:26:56;;;;;;;15.90;4.68;;;8.60;84.30;;;;;;5060765;28;20052;-76
2022/02/17 05:29:22;;;;;;;16.70;3.83;;;8.60;84.30;;;;;;5058825;28;20082;-77
2022/02/17 05:31:48;;;;;;;16.23;3.33;;;8.60;84.30;;;;;;5041842;28;20032;-76
2022/02/17 05:34:14;;;;;;;24.10;4.05;;;8.60;84.30;;;;;;5059533;28;20127;-76
2022/02/17 05:36:40;;;;;;;19.63;4.57;;;8.60;84.30;;;;;;5056470;28;20040;-76
2022/02/17 05:39:06;;;;;;;21.75;3.88;;;8.60;85.00;;;;;;5070287;28;20445;-76
2022/02/17 05:41:32;;;;;;;24.45;5.35;;;8.50;84.30;;;;;;5046281;28;20052;-77
2022/02/17 05:43:58;;;;;;;19.23;4.60;;;8.50;84.30;;;;;;5055109;28;20041;-76
2022/02/17 05:46:23;;;;;;;20.85;4.50;;;8.50;84.40;;;;;;5064938;28;20078;-76
2022/02/17 05:48:49;;;;;;;16.52;4.43;;;8.50;84.50;;;;;;5060166;28;20579;-76
2022/02/17 05:51:17;;;;;;;19.38;4.68;;;8.50;84.60;;;;;;5064279;28;20040;-76
2022/02/17 05:53:43;;;;;;;18.67;4.82;;;8.50;84.70;;;;;;5073391;28;20035;-77
2022/02/17 05:56:09;;;;;;;18.15;4.63;;;8.50;84.70;;;;;;5042677;28;20066;-76
2022/02/17 05:58:35;;;;;;;23.67;5.32;;;8.50;84.60;;;;;;5075303;28;20375;-77
2022/02/17 06:01:01;;;;;;;22.58;5.05;;;8.50;84.70;;;;;;5075759;28;20476;-77
2022/02/17 06:03:27;;;;;;;20.63;3.83;;;8.40;84.60;;;;;;5058901;28;20040;-76
2022/02/17 06:05:52;;;;;;;21.48;4.78;;;8.40;84.80;;;;;;5041414;28;20085;-77
2022/02/17 06:08:19;;;;;;;18.23;4.80;;;8.40;84.80;;;;;;5038222;28;20465;-76
2022/02/17 06:10:44;;;;;;;22.20;4.22;;;8.40;84.60;;;;;;5055062;28;20036;-76
2022/02/17 06:13:10;;;;;;;21.38;5.10;;;8.40;84.90;;;;;;5038875;28;20131;-76
2022/02/17 06:15:36;;;;;;;20.40;4.28;;;8.40;84.80;;;;;;5054805;28;20060;-77
2022/02/17 06:18:03;;;;;;;18.85;4.63;;;8.40;84.80;;;;;;5055448;28;20053;-76
2022/02/17 06:20:29;;;;;;;17.33;4.25;;;8.40;84.90;;;;;;5055277;28;20048;-77
2022/02/17 06:22:54;;;;;;;18.73;4.78;;;8.40;84.90;;;;;;5054726;28;20786;-77
2022/02/17 06:25:20;;;;;;;18.00;4.68;;;8.40;85.10;;;;;;5071359;28;20044;-76
2022/02/17 06:27:47;;;;;;;17.83;4.20;;;8.40;85.20;;;;;;5054588;28;20110;-76
2022/02/17 06:30:13;;;;;;;17.33;3.97;;;8.40;85.40;;;;;;5055808;28;20439;-77
2022/02/17 06:32:51;;;;;;;17.38;4.80;;;8.30;85.40;;;;;;5060080;28;20044;-77
2022/02/17 06:35:18;;;;;;;19.95;4.30;;;8.30;85.50;;;;;;5078768;28;20117;-77
2022/02/17 06:37:44;;;;;;;28.75;5.20;;;8.30;85.60;;;;;;5076828;28;20086;-77
2022/02/17 06:40:10;;;;;;;22.13;5.38;;;8.30;85.90;;;;;;5078227;28;20079;-77
2022/02/17 06:42:36;;;;;;;18.60;4.22;;;8.30;85.90;;;;;;5074277;28;20051;-81
2022/02/17 06:45:02;;;;;;;20.35;4.82;;;8.30;85.90;;;;;;5042082;28;20040;-77
2022/02/17 06:47:28;;;;;;;19.20;4.22;;;8.30;86.00;;;;;;5048760;28;20040;-76
2022/02/17 06:49:53;;;;;;;17.67;4.78;;;8.30;85.90;;;;;;5053271;28;20047;-77
2022/02/17 06:52:19;;;;;;;22.13;4.38;;;8.30;85.70;;;;;;5056502;28;20032;-77
2022/02/17 06:54:45;;;;;;;16.55;4.70;;;8.30;85.60;;;;;;5080515;28;20040;-77
2022/02/17 06:57:10;;;;;;;19.63;4.45;;;8.30;85.60;;;;;;5057322;28;20063;-77
2022/02/17 06:59:36;;;;;;;25.58;4.60;;;8.30;85.50;;;;;;5057134;28;20032;-76
2022/02/17 07:02:02;;;;;;;21.92;4.50;;;8.30;85.60;;;;;;5056889;28;20399;-76
2022/02/17 07:04:28;;;;;;;17.92;4.72;;;8.30;85.50;;;;;;5049314;28;20122;-76
2022/02/17 07:06:53;;;;;;;20.83;4.45;;;8.30;85.60;;;;;;5053548;28;20182;-77
2022/02/17 07:09:19;;;;;;;18.42;4.30;;;8.30;85.70;;;;;;5076530;28;20090;-72
2022/02/17 07:11:45;;;;;;;21.00;5.22;;;8.30;86.40;;;;;;5092477;28;20036;-73
2022/02/17 07:14:11;;;;;;;19.73;4.82;;;8.30;86.50;;;;;;5082027;28;20385;-72
2022/02/17 07:16:37;;;;;;;22.27;5.53;;;8.30;85.70;;;;;;5060575;28;20037;-73
2022/02/17 07:19:03;;;;;;;23.10;4.63;;;8.30;85.70;;;;;;5076919;28;20047;-72
2022/02/17 07:21:28;;;;;;;21.50;5.15;;;8.30;85.70;;;;;;5081985;28;20426;-73
2022/02/17 07:23:54;;;;;;;23.83;5.13;;;8.30;85.70;;;;;;5053380;28;20097;-74
2022/02/17 07:26:20;;;;;;;23.38;4.75;;;8.30;85.90;;;;;;5057748;28;20080;-72
2022/02/17 07:28:45;;;;;;;23.52;4.65;;;8.30;85.60;;;;;;5054710;28;20102;-71
2022/02/17 07:31:14;;;;;;;25.75;4.95;;;8.30;85.40;;;;;;5082247;28;20048;-74
2022/02/17 07:33:40;;;;;;;18.05;4.18;;;8.30;85.20;;;;;;5065570;28;20094;-72
2022/02/17 07:36:07;;;;;;;20.85;4.35;;;8.30;85.30;;;;;;5091328;28;20073;-72
2022/02/17 07:38:34;;;;;;;26.58;4.78;;;8.30;85.10;;;;;;5078685;28;20076;-71
2022/02/17 07:40:59;;;;;;;20.65;4.85;;;8.40;85.20;;;;;;5097922;28;20118;-71
2022/02/17 07:43:25;;;;;;;22.08;4.70;;;8.30;85.00;;;;;;5083401;28;20127;-72
2022/02/17 07:45:51;;;;;;;21.25;4.20;;;8.40;85.00;;;;;;5058346;28;20079;-71
2022/02/17 07:48:16;;;;;;;22.15;4.68;;;8.40;85.00;;;;;;5076333;28;20381;-71
2022/02/17 07:50:42;;;;;;;18.83;4.75;;;8.40;84.70;;;;;;5092972;28;20044;-71
2022/02/17 07:53:08;;;;;;;15.10;4.43;;;8.40;84.50;;;;;;5069076;28;20229;-71
2022/02/17 07:55:34;;;;;;;17.70;4.32;;;8.40;84.20;;;;;;5065689;28;20123;-72
2022/02/17 07:58:02;;;;;;;21.20;4.50;;;8.40;84.00;;;;;;5087914;28;20460;-72
2022/02/17 08:00:28;;;;;;;17.80;4.45;;;8.40;83.90;;;;;;5060469;28;21335;-72
2022/02/17 08:02:53;;;;;;;21.70;4.63;;;8.40;83.80;;;;;;5079014;28;20535;-72
2022/02/17 08:05:19;;;;;;;19.75;4.82;;;8.40;83.70;;;;;;5064676;28;20043;-72
2022/02/17 08:07:45;;;;;;;20.98;4.13;;;8.40;83.70;;;;;;5079950;28;20051;-73
2022/02/17 08:10:10;;;;;;;25.13;4.70;;;8.50;83.80;;;;;;5105578;28;20051;-71
2022/02/17 08:12:40;;;;;;;19.02;4.18;;;8.50;83.70;;;;;;5093355;28;20517;-74
2022/02/17 08:15:07;;;;;;;22.55;4.90;;;8.50;83.70;;;;;;5056108;28;20079;-75
2022/02/17 08:17:32;;;;;;;19.38;4.13;;;8.50;83.70;;;;;;5054631;28;20063;-74
2022/02/17 08:19:58;;;;;;;20.45;5.00;;;8.50;83.60;;;;;;5092159;28;20040;-73
2022/02/17 08:22:24;;;;;;;18.10;4.38;;;8.50;83.60;;;;;;5051161;28;20044;-74
2022/02/17 08:24:49;;;;;;;17.77;5.38;;;8.60;83.90;;;;;;5062015;28;20044;-77
2022/02/17 08:27:15;;;;;;;23.52;4.70;;;8.60;83.80;;;;;;5096760;27;20046;-73
2022/02/17 08:29:42;;;;;;;19.08;4.63;;;8.60;83.70;;;;;;5098806;27;20467;-73
2022/02/17 08:32:08;;;;;;;16.88;4.70;;;8.60;83.70;;;;;;5114522;27;20039;-73
2022/02/17 08:34:34;;;;;;;20.25;5.15;;;8.70;83.60;;;;;;5112479;27;20039;-77
2022/02/17 08:37:00;;;;;;;28.27;4.68;;;8.70;83.60;;;;;;5116283;27;21594;-73
2022/02/17 08:39:25;;;;;;;19.13;4.30;;;8.70;83.30;;;;;;5136809;27;20383;-75
2022/02/17 08:41:51;;;;;;;19.17;4.15;;;8.80;83.20;;;;;;5099450;27;20039;-80
2022/02/17 08:44:17;;;;;;;19.10;4.50;;;8.80;83.30;;;;;;5129336;27;20050;-74
2022/02/17 08:46:42;;;;;;;21.20;4.55;;;8.80;83.20;;;;;;5083734;27;20066;-75
2022/02/17 08:49:08;;;;;;;20.00;4.28;;;8.90;83.10;;;;;;5102017;27;20050;-76
2022/02/17 08:51:35;;;;;;;19.52;4.38;;;8.90;83.30;;;;;;5085079;27;20039;-76
2022/02/17 08:54:01;;;;;;;19.00;4.57;;;8.90;83.00;;;;;;5083461;27;20379;-76
2022/02/17 08:56:27;;;;;;;26.85;4.90;;;9.00;83.10;;;;;;5111674;27;20043;-73
2022/02/17 08:58:53;;;;;;;22.58;4.10;;;9.00;83.00;;;;;;5083872;27;20041;-81
2022/02/17 09:01:19;;;;;;;18.63;4.53;;;9.20;83.90;;;;;;5116165;27;20031;-75
2022/02/17 09:03:44;;;;;;;16.75;3.58;;;9.20;83.00;;;;;;5103976;27;20041;-74
2022/02/17 09:06:10;;;;;;;26.65;4.28;;;9.30;82.20;;;;;;5099301;27;20485;-75
2022/02/17 09:08:36;;;;;;;21.23;4.45;;;9.30;81.80;;;;;;5097603;27;20039;-77
2022/02/17 09:11:03;;;;;;;23.60;4.63;;;9.30;81.90;;;;;;5118554;27;20038;-74
2022/02/17 09:13:28;;;;;;;18.50;4.60;;;9.30;81.50;;;;;;5099984;27;20382;-76
2022/02/17 09:15:54;;;;;;;23.27;4.20;;;9.20;81.30;;;;;;5087843;27;20047;-81
2022/02/17 09:18:20;;;;;;;18.98;4.38;;;9.30;81.30;;;;;;5109026;27;20482;-72
2022/02/17 09:20:46;;;;;;;25.60;4.60;;;9.30;81.10;;;;;;5118055;27;20108;-75
2022/02/17 09:23:11;;;;;;;12.95;3.63;;;9.50;81.60;;;;;;5135314;27;20416;-77
2022/02/17 09:25:37;;;;;;;20.98;3.78;;;9.50;80.70;;;;;;5120345;27;20054;-73
2022/02/17 09:28:04;;;;;;;20.88;4.53;;;9.60;80.90;;;;;;5098839;27;20050;-72
2022/02/17 09:30:30;;;;;;;18.92;3.97;;;9.60;80.60;;;;;;5107071;27;20039;-72
2022/02/17 09:32:55;;;;;;;22.67;4.57;;;9.60;80.60;;;;;;5142680;27;20038;-72
2022/02/17 09:35:21;;;;;;;15.90;4.88;;;9.60;80.50;;;;;;5131051;27;20031;-72
2022/02/17 09:37:47;;;;;;;23.02;5.57;;;9.60;80.50;;;;;;5093079;27;20176;-77
2022/02/17 09:40:12;;;;;;;19.08;4.00;;;9.60;80.40;;;;;;5111127;27;20046;-73
2022/02/17 09:42:39;;;;;;;17.42;4.18;;;9.60;80.50;;;;;;5092275;28;20382;-74
2022/02/17 09:45:09;;;;;;;23.48;5.93;;;9.70;80.80;;;;;;5113477;27;20035;-74
2022/02/17 09:47:39;;;;;;;13.95;3.83;;;9.70;80.00;;;;;;5119603;27;20099;-73
2022/02/17 09:50:06;;;;;;;21.75;3.83;;;9.70;79.20;;;;;;5100151;27;20047;-73
2022/02/17 09:52:32;;;;;;;19.48;4.13;;;9.70;79.20;;;;;;5102403;27;20045;-73
2022/02/17 09:54:59;;;;;;;18.58;3.92;;;9.80;79.50;;;;;;5089227;27;20039;-76
2022/02/17 09:57:24;;;;;;;15.25;3.95;;;9.90;79.50;;;;;;5084753;27;20050;-76
2022/02/17 09:59:50;;;;;;;14.38;3.70;;;10.00;79.40;;;;;;5098720;27;20047;-76
2022/02/17 10:02:23;;;;;;;14.00;3.78;;;10.00;79.50;;;;;;5117479;27;20054;-73
2022/02/17 10:04:56;;;;;;;19.23;4.60;;;10.10;78.40;;;;;;5105971;27;20039;-72
2022/02/17 10:07:32;;;;;;;20.80;3.60;;;10.10;78.20;;;;;;5118995;27;20068;-73
2022/02/17 10:10:00;;;;;;;21.63;4.53;;;10.10;78.00;;;;;;5117498;27;20046;-73
2022/02/17 10:12:25;;;;;;;15.30;3.50;;;10.10;78.40;;;;;;5077411;27;20050;-72
2022/02/17 10:14:58;;;;;;;16.80;4.35;;;10.10;78.40;;;;;;5116696;27;20378;-72
2022/02/17 10:17:24;;;;;;;17.50;4.28;;;10.20;77.70;;;;;;5109860;27;20216;-73
2022/02/17 10:19:52;;;;;;;22.35;4.43;;;10.20;77.70;;;;;;5116989;27;20466;-72
2022/02/17 10:22:20;;;;;;;14.77;3.33;;;10.30;77.30;;;;;;5107683;27;20088;-74
2022/02/17 10:24:50;;;;;;;17.27;3.35;;;10.40;76.70;;;;;;5115154;27;20039;-73
2022/02/17 10:27:17;;;;;;;16.50;3.33;;;10.40;75.90;;;;;;5095901;27;20412;-73
2022/02/17 10:30:19;;;;;;;16.60;3.95;;;10.50;76.30;;;;;;5126467;27;20043;-77
2022/02/17 10:32:52;;;;;;;20.55;3.95;;;10.50;75.80;;;;;;5068776;27;20176;-74
2022/02/17 10:35:18;;;;;;;13.82;3.75;;;10.60;76.30;;;;;;5115417;27;20175;-74
2022/02/17 10:37:45;;;;;;;18.25;3.53;;;10.70;76.50;;;;;;5131294;27;20073;-74
2022/02/17 10:40:21;;;;;;;18.80;3.55;;;10.70;75.70;;;;;;5089795;27;20039;-74
2022/02/17 10:43:12;;;;;;;19.70;4.18;;;10.70;75.00;;;;;;5104562;27;20047;-76
2022/02/17 10:45:39;;;;;;;17.80;3.72;;;10.80;74.90;;;;;;5124274;27;20053;-73
2022/02/17 10:48:18;;;;;;;13.57;3.55;;;10.90;75.30;;;;;;5131484;27;20387;-74
2022/02/17 10:50:49;;;;;;;19.88;3.35;;;10.90;74.60;;;;;;5113500;27;20102;-75
2022/02/17 10:53:20;;;;;;;14.60;4.05;;;10.90;74.70;;;;;;5107521;27;20094;-75
2022/02/17 10:55:52;;;;;;;15.65;3.17;;;11.00;74.30;;;;;;5076461;28;20416;-73
2022/02/17 10:58:17;;;;;;;14.40;3.22;;;11.00;74.50;;;;;;5100180;27;20050;-72
2022/02/17 11:00:43;;;;;;;15.02;3.10;;;11.00;74.20;;;;;;5099339;27;20035;-72
2022/02/17 11:03:09;;;;;;;14.23;2.65;;;11.10;73.80;;;;;;5122157;27;20050;-77
2022/02/17 11:05:37;;;;;;;18.20;3.50;;;11.20;73.70;;;;;;5081330;27;20031;-72
2022/02/17 11:08:04;;;;;;;13.68;3.95;;;11.30;73.70;;;;;;5095342;27;20066;-72
2022/02/17 11:10:30;;;;;;;15.70;4.13;;;11.40;73.50;;;;;;5094246;27;20478;-74
2022/02/17 11:12:58;;;;;;;12.88;3.45;;;11.40;72.90;;;;;;5114457;27;20039;-73
2022/02/17 11:15:24;;;;;;;17.77;3.50;;;11.60;73.00;;;;;;5061068;27;20028;-74
2022/02/17 11:17:50;;;;;;;14.18;3.45;;;11.70;72.90;;;;;;5102303;28;20497;-73
2022/02/17 11:20:20;;;;;;;14.95;4.00;;;11.80;72.10;;;;;;5095350;27;20034;-74
2022/02/17 11:22:47;;;;;;;16.90;3.67;;;11.90;71.90;;;;;;5064770;27;20130;-73
2022/02/17 11:25:13;;;;;;;13.43;3.20;;;12.10;72.00;;;;;;5077442;28;20055;-77
2022/02/17 11:27:58;;;;;;;14.20;3.10;;;12.30;71.30;;;;;;5057167;28;20059;-75
2022/02/17 11:30:27;;;;;;;14.25;4.05;;;12.50;71.20;;;;;;5081649;28;20041;-74
2022/02/17 11:33:37;;;;;;;14.85;3.42;;;13.20;71.80;;;;;;5082114;27;1976949;-72
2022/02/17 11:36:24;;;;;;;14.93;3.35;;;14.00;70.30;;;;;;5113889;27;20054;-73
2022/02/17 11:38:50;;;;;;;12.45;2.83;;;15.00;69.30;;;;;;5146374;27;20047;-72
2022/02/17 11:41:20;;;;;;;10.85;2.65;;;16.20;63.80;;;;;;5131043;27;20043;-75
2022/02/17 11:43:48;;;;;;;13.27;3.17;;;17.10;59.90;;;;;;5141498;27;20054;-72
2022/02/17 11:46:15;;;;;;;15.75;3.60;;;17.90;57.00;;;;;;5134040;27;20047;-81
2022/02/17 11:48:45;;;;;;;15.38;3.53;;;18.60;54.40;;;;;;5113057;27;20502;-77
2022/02/17 11:51:22;;;;;;;10.82;3.03;;;19.20;52.50;;;;;;5115138;28;20517;-76
2022/02/17 11:54:18;;;;;;;13.98;3.40;;;19.50;51.70;;;;;;5111926;28;20535;-72
2022/02/17 11:56:48;;;;;;;13.18;3.38;;;19.60;52.20;;;;;;5132404;27;20044;-76
